sensor_id;sensor_type;location;lat;lon;timestamp;pressure;altitude;pressure_sealevel;temperature;humidity
4133;BME280;2080;51.038;7.008;2023-03-14T00:01:45;74392.19;;;-142.53;100.00
4133;BME280;2080;51.038;7.008;2023-03-14T00:04:12;74382.47;;;-142.53;100.00
4133;BME280;2080;51.038;7.008;2023-03-14T00:06:37;74376.66;;;-142.53;100.00
4133;BME280;2080;51.038;7.008;2023-03-14T00:09:06;74376.66;;;-142.53;100.00
4133;BME280;2080;51.038;7.008;2023-03-14T00:11:34;74363.06;;;-142.53;100.00
4133;BME280;2080;51.038;7.008;2023-03-14T00:14:01;74363.06;;;-142.53;100.00
4133;BME280;2080;51.038;7.008;2023-03-14T00:16:30;74351.44;;;-142.53;100.00
4133;BME280;2080;51.038;7.008;2023-03-14T00:18:55;74370.84;;;-142.53;100.00
4133;BME280;2080;51.038;7.008;2023-03-14T00:21:21;74386.38;;;-142.53;100.00
4133;BME280;2080;51.038;7.008;2023-03-14T00:23:48;74386.38;;;-142.53;100.00
4133;BME280;2080;51.038;7.008;2023-03-14T00:26:18;74366.94;;;-142.53;100.00
4133;BME280;2080;51.038;7.008;2023-03-14T00:28:46;74368.91;;;-142.53;100.00
4133;BME280;2080;51.038;7.008;2023-03-14T00:31:14;74359.19;;;-142.53;100.00
4133;BME280;2080;51.038;7.008;2023-03-14T00:33:42;74357.25;;;-142.53;100.00
4133;BME280;2080;51.038;7.008;2023-03-14T00:36:15;74347.53;;;-142.53;100.00
4133;BME280;2080;51.038;7.008;2023-03-14T00:38:41;74343.66;;;-142.53;100.00
4133;BME280;2080;51.038;7.008;2023-03-14T00:41:11;74328.13;;;-142.53;100.00
4133;BME280;2080;51.038;7.008;2023-03-14T00:43:39;74343.66;;;-142.53;100.00
4133;BME280;2080;51.038;7.008;2023-03-14T00:46:05;74341.72;;;-142.53;100.00
4133;BME280;2080;51.038;7.008;2023-03-14T00:48:31;74339.78;;;-142.53;100.00
4133;BME280;2080;51.038;7.008;2023-03-14T00:50:59;74324.25;;;-142.53;100.00
4133;BME280;2080;51.038;7.008;2023-03-14T00:53:24;74328.13;;;-142.53;100.00
4133;BME280;2080;51.038;7.008;2023-03-14T00:55:52;74320.38;;;-142.53;100.00
4133;BME280;2080;51.038;7.008;2023-03-14T00:58:18;74312.59;;;-142.53;100.00
4133;BME280;2080;51.038;7.008;2023-03-14T01:00:44;74324.25;;;-142.53;100.00
4133;BME280;2080;51.038;7.008;2023-03-14T01:03:13;74312.59;;;-142.53;100.00
4133;BME280;2080;51.038;7.008;2023-03-14T01:05:39;74345.59;;;-142.53;100.00
4133;BME280;2080;51.038;7.008;2023-03-14T01:08:05;74442.66;;;-142.53;100.00
4133;BME280;2080;51.038;7.008;2023-03-14T01:10:32;74495.06;;;-142.53;100.00
4133;BME280;2080;51.038;7.008;2023-03-14T01:12:57;74572.72;;;-142.53;100.00
4133;BME280;2080;51.038;7.008;2023-03-14T01:15:23;74592.13;;;-142.53;100.00
4133;BME280;2080;51.038;7.008;2023-03-14T01:17:48;74601.84;;;-142.53;100.00
4133;BME280;2080;51.038;7.008;2023-03-14T01:20:16;74634.84;;;-142.53;100.00
4133;BME280;2080;51.038;7.008;2023-03-14T01:22:43;74638.72;;;-142.53;100.00
4133;BME280;2080;51.038;7.008;2023-03-14T01:25:11;74630.97;;;-142.53;100.00
4133;BME280;2080;51.038;7.008;2023-03-14T01:27:37;74615.44;;;-142.53;100.00
4133;BME280;2080;51.038;7.008;2023-03-14T01:30:03;74605.72;;;-142.53;100.00
4133;BME280;2080;51.038;7.008;2023-03-14T01:32:28;74599.91;;;-142.53;100.00
4133;BME280;2080;51.038;7.008;2023-03-14T01:34:54;74582.44;;;-142.53;100.00
4133;BME280;2080;51.038;7.008;2023-03-14T01:37:23;74580.50;;;-142.53;100.00
4133;BME280;2080;51.038;7.008;2023-03-14T01:39:51;74584.38;;;-142.53;100.00
4133;BME280;2080;51.038;7.008;2023-03-14T01:42:17;74584.38;;;-142.53;100.00
4133;BME280;2080;51.038;7.008;2023-03-14T01:44:58;74578.56;;;-142.53;100.00
4133;BME280;2080;51.038;7.008;2023-03-14T01:47:26;74590.19;;;-142.53;100.00
4133;BME280;2080;51.038;7.008;2023-03-14T01:50:08;74584.38;;;-142.53;100.00
4133;BME280;2080;51.038;7.008;2023-03-14T01:52:40;74588.25;;;-142.53;100.00
4133;BME280;2080;51.038;7.008;2023-03-14T01:55:23;74584.38;;;-142.53;100.00
4133;BME280;2080;51.038;7.008;2023-03-14T01:57:59;74582.44;;;-142.53;100.00
4133;BME280;2080;51.038;7.008;2023-03-14T02:00:26;74592.13;;;-142.53;100.00
4133;BME280;2080;51.038;7.008;2023-03-14T02:03:00;74574.66;;;-142.53;100.00
4133;BME280;2080;51.038;7.008;2023-03-14T02:05:29;74563.03;;;-142.53;100.00
4133;BME280;2080;51.038;7.008;2023-03-14T02:07:58;74568.84;;;-142.53;100.00
4133;BME280;2080;51.038;7.008;2023-03-14T02:10:29;74574.66;;;-142.53;100.00
4133;BME280;2080;51.038;7.008;2023-03-14T02:12:56;74568.84;;;-142.53;100.00
4133;BME280;2080;51.038;7.008;2023-03-14T02:15:22;74572.72;;;-142.53;100.00
4133;BME280;2080;51.038;7.008;2023-03-14T02:17:48;74568.84;;;-142.53;100.00
4133;BME280;2080;51.038;7.008;2023-03-14T02:23:05;74572.72;;;-142.53;100.00
4133;BME280;2080;51.038;7.008;2023-03-14T02:25:51;74549.44;;;-142.53;100.00
4133;BME280;2080;51.038;7.008;2023-03-14T02:28:23;74561.06;;;-142.53;100.00
4133;BME280;2080;51.038;7.008;2023-03-14T02:30:49;74568.84;;;-142.53;100.00
4133;BME280;2080;51.038;7.008;2023-03-14T02:33:18;74561.06;;;-142.53;100.00
4133;BME280;2080;51.038;7.008;2023-03-14T02:35:46;74568.84;;;-142.53;100.00
4133;BME280;2080;51.038;7.008;2023-03-14T02:40:53;74557.19;;;-142.53;100.00
4133;BME280;2080;51.038;7.008;2023-03-14T02:43:18;74553.31;;;-142.53;100.00
4133;BME280;2080;51.038;7.008;2023-03-14T02:45:46;74545.56;;;-142.53;100.00
4133;BME280;2080;51.038;7.008;2023-03-14T02:48:18;74539.72;;;-142.53;100.00
4133;BME280;2080;51.038;7.008;2023-03-14T02:50:48;74537.78;;;-142.53;100.00
4133;BME280;2080;51.038;7.008;2023-03-14T02:53:18;74539.72;;;-142.53;100.00
4133;BME280;2080;51.038;7.008;2023-03-14T02:55:47;74549.44;;;-142.53;100.00
4133;BME280;2080;51.038;7.008;2023-03-14T02:58:13;74561.06;;;-142.53;100.00
4133;BME280;2080;51.038;7.008;2023-03-14T03:00:41;74561.06;;;-142.53;100.00
4133;BME280;2080;51.038;7.008;2023-03-14T03:03:06;74559.13;;;-142.53;100.00
4133;BME280;2080;51.038;7.008;2023-03-14T03:05:32;74557.19;;;-142.53;100.00
4133;BME280;2080;51.038;7.008;2023-03-14T03:08:00;74553.31;;;-142.53;100.00
4133;BME280;2080;51.038;7.008;2023-03-14T03:10:27;74543.59;;;-142.53;100.00
4133;BME280;2080;51.038;7.008;2023-03-14T03:12:54;74537.78;;;-142.53;100.00
4133;BME280;2080;51.038;7.008;2023-03-14T03:15:20;74541.66;;;-142.53;100.00
4133;BME280;2080;51.038;7.008;2023-03-14T03:17:48;74539.72;;;-142.53;100.00
4133;BME280;2080;51.038;7.008;2023-03-14T03:20:15;74537.78;;;-142.53;100.00
4133;BME280;2080;51.038;7.008;2023-03-14T03:22:41;74533.91;;;-142.53;100.00
4133;BME280;2080;51.038;7.008;2023-03-14T03:25:07;74518.38;;;-142.53;100.00
4133;BME280;2080;51.038;7.008;2023-03-14T03:27:36;74520.31;;;-142.53;100.00
4133;BME280;2080;51.038;7.008;2023-03-14T03:30:04;74518.38;;;-142.53;100.00
4133;BME280;2080;51.038;7.008;2023-03-14T03:32:30;74526.13;;;-142.53;100.00
4133;BME280;2080;51.038;7.008;2023-03-14T03:34:57;74522.25;;;-142.53;100.00
4133;BME280;2080;51.038;7.008;2023-03-14T03:37:23;74522.25;;;-142.53;100.00
4133;BME280;2080;51.038;7.008;2023-03-14T03:39:52;74510.59;;;-142.53;100.00
4133;BME280;2080;51.038;7.008;2023-03-14T03:42:18;74518.38;;;-142.53;100.00
4133;BME280;2080;51.038;7.008;2023-03-14T03:44:46;74518.38;;;-142.53;100.00
4133;BME280;2080;51.038;7.008;2023-03-14T03:47:12;74510.59;;;-142.53;100.00
4133;BME280;2080;51.038;7.008;2023-03-14T03:49:37;74506.72;;;-142.53;100.00
4133;BME280;2080;51.038;7.008;2023-03-14T03:52:03;74506.72;;;-142.53;100.00
4133;BME280;2080;51.038;7.008;2023-03-14T03:54:30;74508.66;;;-142.53;100.00
4133;BME280;2080;51.038;7.008;2023-03-14T03:56:58;74510.59;;;-142.53;100.00
4133;BME280;2080;51.038;7.008;2023-03-14T03:59:26;74506.72;;;-142.53;100.00
4133;BME280;2080;51.038;7.008;2023-03-14T04:01:51;74502.84;;;-142.53;100.00
4133;BME280;2080;51.038;7.008;2023-03-14T04:04:19;74502.84;;;-142.53;100.00
4133;BME280;2080;51.038;7.008;2023-03-14T04:06:45;74491.19;;;-142.53;100.00
4133;BME280;2080;51.038;7.008;2023-03-14T04:09:10;74487.31;;;-142.53;100.00
4133;BME280;2080;51.038;7.008;2023-03-14T04:11:36;74498.97;;;-142.53;100.00
4133;BME280;2080;51.038;7.008;2023-03-14T04:14:02;74498.97;;;-142.53;100.00
4133;BME280;2080;51.038;7.008;2023-03-14T04:16:30;74495.06;;;-142.53;100.00
4133;BME280;2080;51.038;7.008;2023-03-14T04:19:01;74487.31;;;-142.53;100.00
4133;BME280;2080;51.038;7.008;2023-03-14T04:21:27;74487.31;;;-142.53;100.00
4133;BME280;2080;51.038;7.008;2023-03-14T04:23:52;74479.53;;;-142.53;100.00
4133;BME280;2080;51.038;7.008;2023-03-14T04:26:20;74487.31;;;-142.53;100.00
4133;BME280;2080;51.038;7.008;2023-03-14T04:28:45;74487.31;;;-142.53;100.00
4133;BME280;2080;51.038;7.008;2023-03-14T04:31:15;74471.78;;;-142.53;100.00
4133;BME280;2080;51.038;7.008;2023-03-14T04:33:41;74475.66;;;-142.53;100.00
4133;BME280;2080;51.038;7.008;2023-03-14T04:36:08;74467.91;;;-142.53;100.00
4133;BME280;2080;51.038;7.008;2023-03-14T04:38:34;74473.72;;;-142.53;100.00
4133;BME280;2080;51.038;7.008;2023-03-14T04:40:59;74479.53;;;-142.53;100.00
4133;BME280;2080;51.038;7.008;2023-03-14T04:43:28;74475.66;;;-142.53;100.00
4133;BME280;2080;51.038;7.008;2023-03-14T04:45:57;74460.13;;;-142.53;100.00
4133;BME280;2080;51.038;7.008;2023-03-14T04:48:26;74456.25;;;-142.53;100.00
4133;BME280;2080;51.038;7.008;2023-03-14T04:50:54;74456.25;;;-142.53;100.00
4133;BME280;2080;51.038;7.008;2023-03-14T04:53:20;74460.13;;;-142.53;100.00
4133;BME280;2080;51.038;7.008;2023-03-14T04:55:53;74450.44;;;-142.53;100.00
4133;BME280;2080;51.038;7.008;2023-03-14T04:58:19;74462.06;;;-142.53;100.00
4133;BME280;2080;51.038;7.008;2023-03-14T05:00:46;74450.44;;;-142.53;100.00
4133;BME280;2080;51.038;7.008;2023-03-14T05:03:11;74444.59;;;-142.53;100.00
4133;BME280;2080;51.038;7.008;2023-03-14T05:05:39;74440.72;;;-142.53;100.00
4133;BME280;2080;51.038;7.008;2023-03-14T05:08:07;74436.84;;;-142.53;100.00
4133;BME280;2080;51.038;7.008;2023-03-14T05:10:33;74442.66;;;-142.53;100.00
4133;BME280;2080;51.038;7.008;2023-03-14T05:13:00;74440.72;;;-142.53;100.00
4133;BME280;2080;51.038;7.008;2023-03-14T05:15:26;74432.97;;;-142.53;100.00
4133;BME280;2080;51.038;7.008;2023-03-14T05:17:54;74427.13;;;-142.53;100.00
4133;BME280;2080;51.038;7.008;2023-03-14T05:20:21;74423.25;;;-142.53;100.00
4133;BME280;2080;51.038;7.008;2023-03-14T05:22:47;74421.31;;;-142.53;100.00
4133;BME280;2080;51.038;7.008;2023-03-14T05:25:12;74421.31;;;-142.53;100.00
4133;BME280;2080;51.038;7.008;2023-03-14T05:27:38;74421.31;;;-142.53;100.00
4133;BME280;2080;51.038;7.008;2023-03-14T05:30:05;74413.53;;;-142.53;100.00
4133;BME280;2080;51.038;7.008;2023-03-14T05:32:32;74409.66;;;-142.53;100.00
4133;BME280;2080;51.038;7.008;2023-03-14T05:34:58;74417.44;;;-142.53;100.00
4133;BME280;2080;51.038;7.008;2023-03-14T05:37:27;74398.00;;;-142.53;100.00
4133;BME280;2080;51.038;7.008;2023-03-14T05:39:55;74409.66;;;-142.53;100.00
4133;BME280;2080;51.038;7.008;2023-03-14T05:42:20;74419.38;;;-142.53;100.00
4133;BME280;2080;51.038;7.008;2023-03-14T05:44:46;74413.53;;;-142.53;100.00
4133;BME280;2080;51.038;7.008;2023-03-14T05:47:11;74405.78;;;-142.53;100.00
4133;BME280;2080;51.038;7.008;2023-03-14T05:49:39;74398.00;;;-142.53;100.00
4133;BME280;2080;51.038;7.008;2023-03-14T05:52:04;74386.38;;;-142.53;100.00
4133;BME280;2080;51.038;7.008;2023-03-14T05:54:30;74394.13;;;-142.53;100.00
4133;BME280;2080;51.038;7.008;2023-03-14T05:56:58;74392.19;;;-142.53;100.00
4133;BME280;2080;51.038;7.008;2023-03-14T05:59:24;74386.38;;;-142.53;100.00
4133;BME280;2080;51.038;7.008;2023-03-14T06:01:51;74374.72;;;-142.53;100.00
4133;BME280;2080;51.038;7.008;2023-03-14T06:04:17;74374.72;;;-142.53;100.00
4133;BME280;2080;51.038;7.008;2023-03-14T06:06:42;74366.94;;;-142.53;100.00
4133;BME280;2080;51.038;7.008;2023-03-14T06:09:12;74355.31;;;-142.53;100.00
4133;BME280;2080;51.038;7.008;2023-03-14T06:11:40;74365.00;;;-142.53;100.00
4133;BME280;2080;51.038;7.008;2023-03-14T06:14:06;74355.31;;;-142.53;100.00
4133;BME280;2080;51.038;7.008;2023-03-14T06:16:34;74363.06;;;-142.53;100.00
4133;BME280;2080;51.038;7.008;2023-03-14T06:18:59;74366.94;;;-142.53;100.00
4133;BME280;2080;51.038;7.008;2023-03-14T06:21:25;74361.13;;;-142.53;100.00
4133;BME280;2080;51.038;7.008;2023-03-14T06:23:50;74363.06;;;-142.53;100.00
4133;BME280;2080;51.038;7.008;2023-03-14T06:26:16;74366.94;;;-142.53;100.00
4133;BME280;2080;51.038;7.008;2023-03-14T06:28:43;74382.47;;;-142.53;100.00
4133;BME280;2080;51.038;7.008;2023-03-14T06:31:11;74355.31;;;-142.53;100.00
4133;BME280;2080;51.038;7.008;2023-03-14T06:33:39;74359.19;;;-142.53;100.00
4133;BME280;2080;51.038;7.008;2023-03-14T06:36:05;74357.25;;;-142.53;100.00
4133;BME280;2080;51.038;7.008;2023-03-14T06:38:30;74347.53;;;-142.53;100.00
4133;BME280;2080;51.038;7.008;2023-03-14T06:41:06;74328.13;;;-142.53;100.00
4133;BME280;2080;51.038;7.008;2023-03-14T06:43:32;74333.97;;;-142.53;100.00
4133;BME280;2080;51.038;7.008;2023-03-14T06:45:57;74324.25;;;-142.53;100.00
4133;BME280;2080;51.038;7.008;2023-03-14T06:48:25;74328.13;;;-142.53;100.00
4133;BME280;2080;51.038;7.008;2023-03-14T06:50:51;74320.38;;;-142.53;100.00
4133;BME280;2080;51.038;7.008;2023-03-14T06:53:16;74316.47;;;-142.53;100.00
4133;BME280;2080;51.038;7.008;2023-03-14T06:55:43;74300.97;;;-142.53;100.00
4133;BME280;2080;51.038;7.008;2023-03-14T06:58:10;74291.25;;;-142.53;100.00
4133;BME280;2080;51.038;7.008;2023-03-14T07:00:36;74291.25;;;-142.53;100.00
4133;BME280;2080;51.038;7.008;2023-03-14T07:03:02;74289.31;;;-142.53;100.00
4133;BME280;2080;51.038;7.008;2023-03-14T07:05:27;74277.66;;;-142.53;100.00
4133;BME280;2080;51.038;7.008;2023-03-14T07:07:52;74289.31;;;-142.53;100.00
4133;BME280;2080;51.038;7.008;2023-03-14T07:10:18;74293.19;;;-142.53;100.00
4133;BME280;2080;51.038;7.008;2023-03-14T07:12:43;74308.72;;;-142.53;100.00
4133;BME280;2080;51.038;7.008;2023-03-14T07:15:11;74300.97;;;-142.53;100.00
4133;BME280;2080;51.038;7.008;2023-03-14T07:17:37;74312.59;;;-142.53;100.00
4133;BME280;2080;51.038;7.008;2023-03-14T07:20:03;74300.97;;;-142.53;100.00
4133;BME280;2080;51.038;7.008;2023-03-14T07:22:34;74293.19;;;-142.53;100.00
4133;BME280;2080;51.038;7.008;2023-03-14T07:24:59;74295.13;;;-142.53;100.00
4133;BME280;2080;51.038;7.008;2023-03-14T07:27:24;74283.50;;;-142.53;100.00
4133;BME280;2080;51.038;7.008;2023-03-14T07:29:52;74250.47;;;-142.53;100.00
4133;BME280;2080;51.038;7.008;2023-03-14T07:32:18;74254.38;;;-142.53;100.00
4133;BME280;2080;51.038;7.008;2023-03-14T07:34:45;74234.97;;;-142.53;100.00
4133;BME280;2080;51.038;7.008;2023-03-14T07:37:11;74231.06;;;-142.53;100.00
4133;BME280;2080;51.038;7.008;2023-03-14T07:39:36;74223.31;;;-142.53;100.00
4133;BME280;2080;51.038;7.008;2023-03-14T07:42:02;74227.19;;;-142.53;100.00
4133;BME280;2080;51.038;7.008;2023-03-14T07:44:27;74234.97;;;-142.53;100.00
4133;BME280;2080;51.038;7.008;2023-03-14T07:46:58;74234.97;;;-142.53;100.00
4133;BME280;2080;51.038;7.008;2023-03-14T07:49:23;74244.66;;;-142.53;100.00
4133;BME280;2080;51.038;7.008;2023-03-14T07:51:49;74231.06;;;-142.53;100.00
4133;BME280;2080;51.038;7.008;2023-03-14T07:54:15;74219.44;;;-142.53;100.00
4133;BME280;2080;51.038;7.008;2023-03-14T07:56:44;74238.84;;;-142.53;100.00
4133;BME280;2080;51.038;7.008;2023-03-14T07:59:10;74219.44;;;-142.53;100.00
4133;BME280;2080;51.038;7.008;2023-03-14T08:01:36;74227.19;;;-142.53;100.00
4133;BME280;2080;51.038;7.008;2023-03-14T08:04:01;74231.06;;;-142.53;100.00
4133;BME280;2080;51.038;7.008;2023-03-14T08:06:27;74244.66;;;-142.53;100.00
4133;BME280;2080;51.038;7.008;2023-03-14T08:08:52;74234.97;;;-142.53;100.00
4133;BME280;2080;51.038;7.008;2023-03-14T08:11:20;74227.19;;;-142.53;100.00
4133;BME280;2080;51.038;7.008;2023-03-14T08:13:47;74180.59;;;-142.53;100.00
4133;BME280;2080;51.038;7.008;2023-03-14T08:16:18;74163.13;;;-142.53;100.00
4133;BME280;2080;51.038;7.008;2023-03-14T08:18:44;74161.19;;;-142.53;100.00
4133;BME280;2080;51.038;7.008;2023-03-14T08:21:10;74145.66;;;-142.53;100.00
4133;BME280;2080;51.038;7.008;2023-03-14T08:23:40;74143.72;;;-142.53;100.00
4133;BME280;2080;51.038;7.008;2023-03-14T08:26:09;74134.03;;;-142.53;100.00
4133;BME280;2080;51.038;7.008;2023-03-14T08:28:34;74126.25;;;-142.53;100.00
4133;BME280;2080;51.038;7.008;2023-03-14T08:31:04;74145.66;;;-142.53;100.00
4133;BME280;2080;51.038;7.008;2023-03-14T08:33:30;74137.91;;;-142.53;100.00
4133;BME280;2080;51.038;7.008;2023-03-14T08:36:00;74141.78;;;-142.53;100.00
4133;BME280;2080;51.038;7.008;2023-03-14T08:38:26;74134.03;;;-142.53;100.00
4133;BME280;2080;51.038;7.008;2023-03-14T08:40:58;74122.38;;;-142.53;100.00
4133;BME280;2080;51.038;7.008;2023-03-14T08:43:27;74122.38;;;-142.53;100.00
4133;BME280;2080;51.038;7.008;2023-03-14T08:45:52;74167.03;;;-142.53;100.00
4133;BME280;2080;51.038;7.008;2023-03-14T08:48:18;74192.25;;;-142.53;100.00
4133;BME280;2080;51.038;7.008;2023-03-14T08:50:44;74221.38;;;-142.53;100.00
4133;BME280;2080;51.038;7.008;2023-03-14T08:53:12;74223.31;;;-142.53;100.00
4133;BME280;2080;51.038;7.008;2023-03-14T08:55:38;74238.84;;;-142.53;100.00
4133;BME280;2080;51.038;7.008;2023-03-14T08:58:05;74227.19;;;-142.53;100.00
4133;BME280;2080;51.038;7.008;2023-03-14T09:00:33;74217.50;;;-142.53;100.00
4133;BME280;2080;51.038;7.008;2023-03-14T09:02:58;74234.97;;;-142.53;100.00
4133;BME280;2080;51.038;7.008;2023-03-14T09:05:24;74227.19;;;-142.53;100.00
4133;BME280;2080;51.038;7.008;2023-03-14T09:07:49;74227.19;;;-142.53;100.00
4133;BME280;2080;51.038;7.008;2023-03-14T09:10:15;74217.50;;;-142.53;100.00
4133;BME280;2080;51.038;7.008;2023-03-14T09:12:40;74227.19;;;-142.53;100.00
4133;BME280;2080;51.038;7.008;2023-03-14T09:15:08;74203.91;;;-142.53;100.00
4133;BME280;2080;51.038;7.008;2023-03-14T09:17:34;74219.44;;;-142.53;100.00
4133;BME280;2080;51.038;7.008;2023-03-14T09:20:02;74227.19;;;-142.53;100.00
4133;BME280;2080;51.038;7.008;2023-03-14T09:22:30;74238.84;;;-142.53;100.00
4133;BME280;2080;51.038;7.008;2023-03-14T09:24:56;74231.06;;;-142.53;100.00
4133;BME280;2080;51.038;7.008;2023-03-14T09:27:21;74234.97;;;-142.53;100.00
4133;BME280;2080;51.038;7.008;2023-03-14T09:29:50;74231.06;;;-142.53;100.00
4133;BME280;2080;51.038;7.008;2023-03-14T09:32:15;74225.25;;;-142.53;100.00
4133;BME280;2080;51.038;7.008;2023-03-14T09:34:45;74223.31;;;-142.53;100.00
4133;BME280;2080;51.038;7.008;2023-03-14T09:37:11;74238.84;;;-142.53;100.00
4133;BME280;2080;51.038;7.008;2023-03-14T09:39:36;74266.00;;;-142.53;100.00
4133;BME280;2080;51.038;7.008;2023-03-14T09:42:04;74316.47;;;-142.53;100.00
4133;BME280;2080;51.038;7.008;2023-03-14T09:44:33;74452.38;;;-142.53;100.00
4133;BME280;2080;51.038;7.008;2023-03-14T09:47:12;74572.72;;;-142.53;100.00
4133;BME280;2080;51.038;7.008;2023-03-14T09:49:40;74582.44;;;-142.53;100.00
4133;BME280;2080;51.038;7.008;2023-03-14T09:52:22;74611.56;;;-142.53;100.00
4133;BME280;2080;51.038;7.008;2023-03-14T09:54:58;74658.16;;;-142.53;100.00
4133;BME280;2080;51.038;7.008;2023-03-14T09:57:26;74673.69;;;-142.53;100.00
4133;BME280;2080;51.038;7.008;2023-03-14T09:59:58;74685.31;;;-142.53;100.00
4133;BME280;2080;51.038;7.008;2023-03-14T10:02:34;74728.03;;;-142.53;100.00
4133;BME280;2080;51.038;7.008;2023-03-14T10:04:59;74759.09;;;-142.53;100.00
4133;BME280;2080;51.038;7.008;2023-03-14T10:07:30;74759.09;;;-142.53;100.00
4133;BME280;2080;51.038;7.008;2023-03-14T10:09:57;74797.94;;;-142.53;100.00
4133;BME280;2080;51.038;7.008;2023-03-14T10:12:34;74803.75;;;-142.53;100.00
4133;BME280;2080;51.038;7.008;2023-03-14T10:15:05;74805.69;;;-142.53;100.00
4133;BME280;2080;51.038;7.008;2023-03-14T10:17:38;74809.56;;;-142.53;100.00
4133;BME280;2080;51.038;7.008;2023-03-14T10:20:05;74838.69;;;-142.53;100.00
4133;BME280;2080;51.038;7.008;2023-03-14T10:22:31;74850.34;;;-142.53;100.00
4133;BME280;2080;51.038;7.008;2023-03-14T10:25:02;74856.16;;;-142.53;100.00
4133;BME280;2080;51.038;7.008;2023-03-14T10:27:34;74879.47;;;-142.53;100.00
4133;BME280;2080;51.038;7.008;2023-03-14T10:30:02;74891.13;;;-142.53;100.00
4133;BME280;2080;51.038;7.008;2023-03-14T10:32:37;74898.88;;;-142.53;100.00
4133;BME280;2080;51.038;7.008;2023-03-14T10:35:25;74916.34;;;-142.53;100.00
4133;BME280;2080;51.038;7.008;2023-03-14T10:37:54;74926.06;;;-142.53;100.00
4133;BME280;2080;51.038;7.008;2023-03-14T10:40:28;74957.13;;;-142.53;100.00
4133;BME280;2080;51.038;7.008;2023-03-14T10:42:55;74959.06;;;-142.53;100.00
4133;BME280;2080;51.038;7.008;2023-03-14T10:47:57;74945.47;;;-142.53;100.00
4133;BME280;2080;51.038;7.008;2023-03-14T10:52:54;74992.06;;;-142.53;100.00
4133;BME280;2080;51.038;7.008;2023-03-14T10:55:20;75001.78;;;-142.53;100.00
4133;BME280;2080;51.038;7.008;2023-03-14T10:57:46;75030.91;;;-142.53;100.00
4133;BME280;2080;51.038;7.008;2023-03-14T11:00:16;75025.09;;;-142.53;100.00
4133;BME280;2080;51.038;7.008;2023-03-14T11:05:30;74992.06;;;-142.53;100.00
4133;BME280;2080;51.038;7.008;2023-03-14T11:08:01;74964.88;;;-142.53;100.00
4133;BME280;2080;51.038;7.008;2023-03-14T11:10:38;74957.13;;;-142.53;100.00
4133;BME280;2080;51.038;7.008;2023-03-14T11:13:25;74937.72;;;-142.53;100.00
4133;BME280;2080;51.038;7.008;2023-03-14T11:21:13;74879.47;;;-142.53;100.00
4133;BME280;2080;51.038;7.008;2023-03-14T11:35:03;75027.03;;;-142.53;100.00
4133;BME280;2080;51.038;7.008;2023-03-14T11:37:35;75108.56;;;-142.53;100.00
4133;BME280;2080;51.038;7.008;2023-03-14T11:42:32;75161.00;;;-142.53;100.00
4133;BME280;2080;51.038;7.008;2023-03-14T11:45:00;75170.69;;;-142.53;100.00
4133;BME280;2080;51.038;7.008;2023-03-14T11:47:41;75166.81;;;-142.53;100.00
4133;BME280;2080;51.038;7.008;2023-03-14T11:50:14;75182.34;;;-142.53;100.00
4133;BME280;2080;51.038;7.008;2023-03-14T11:52:49;75145.47;;;-142.53;100.00
4133;BME280;2080;51.038;7.008;2023-03-14T11:55:22;75172.66;;;-142.53;100.00
4133;BME280;2080;51.038;7.008;2023-03-14T11:57:53;75194.00;;;-142.53;100.00
4133;BME280;2080;51.038;7.008;2023-03-14T12:00:23;75219.25;;;-142.53;100.00
4133;BME280;2080;51.038;7.008;2023-03-14T12:11:22;75337.69;;;-142.53;100.00
4133;BME280;2080;51.038;7.008;2023-03-14T12:13:53;75364.88;;;-142.53;100.00
4133;BME280;2080;51.038;7.008;2023-03-14T12:16:40;75345.44;;;-142.53;100.00
4133;BME280;2080;51.038;7.008;2023-03-14T12:19:37;75337.69;;;-142.53;100.00
4133;BME280;2080;51.038;7.008;2023-03-14T12:22:28;75322.16;;;-142.53;100.00
4133;BME280;2080;51.038;7.008;2023-03-14T12:25:13;75353.22;;;-142.53;100.00
4133;BME280;2080;51.038;7.008;2023-03-14T12:35:47;75353.22;;;-142.53;100.00
4133;BME280;2080;51.038;7.008;2023-03-14T12:38:18;75364.88;;;-142.53;100.00
4133;BME280;2080;51.038;7.008;2023-03-14T12:41:01;75362.94;;;-142.53;100.00
4133;BME280;2080;51.038;7.008;2023-03-14T12:43:33;75372.63;;;-142.53;100.00
4133;BME280;2080;51.038;7.008;2023-03-14T12:48:33;75421.19;;;-142.53;100.00
4133;BME280;2080;51.038;7.008;2023-03-14T12:51:04;75413.41;;;-142.53;100.00
4133;BME280;2080;51.038;7.008;2023-03-14T13:01:52;75364.88;;;-142.53;100.00
4133;BME280;2080;51.038;7.008;2023-03-14T13:04:19;75357.09;;;-142.53;100.00
4133;BME280;2080;51.038;7.008;2023-03-14T13:06:54;75368.75;;;-142.53;100.00
4133;BME280;2080;51.038;7.008;2023-03-14T13:12:03;75329.91;;;-142.53;100.00
4133;BME280;2080;51.038;7.008;2023-03-14T13:14:35;75361.00;;;-142.53;100.00
4133;BME280;2080;51.038;7.008;2023-03-14T13:17:02;75341.56;;;-142.53;100.00
4133;BME280;2080;51.038;7.008;2023-03-14T13:19:32;75318.28;;;-142.53;100.00
4133;BME280;2080;51.038;7.008;2023-03-14T13:22:04;75306.63;;;-142.53;100.00
4133;BME280;2080;51.038;7.008;2023-03-14T13:24:33;75310.50;;;-142.53;100.00
4133;BME280;2080;51.038;7.008;2023-03-14T13:27:02;75380.41;;;-142.53;100.00
4133;BME280;2080;51.038;7.008;2023-03-14T13:29:29;75481.38;;;-142.53;100.00
4133;BME280;2080;51.038;7.008;2023-03-14T13:31:59;75508.56;;;-142.53;100.00
4133;BME280;2080;51.038;7.008;2023-03-14T13:34:26;75500.78;;;-142.53;100.00
4133;BME280;2080;51.038;7.008;2023-03-14T13:36:52;75586.25;;;-142.53;100.00
4133;BME280;2080;51.038;7.008;2023-03-14T13:39:22;75617.31;;;-142.53;100.00
4133;BME280;2080;51.038;7.008;2023-03-14T13:41:51;75636.72;;;-142.53;100.00
4133;BME280;2080;51.038;7.008;2023-03-14T13:44:25;75621.19;;;-142.53;100.00
4133;BME280;2080;51.038;7.008;2023-03-14T13:46:51;75617.31;;;-142.53;100.00
4133;BME280;2080;51.038;7.008;2023-03-14T13:49:23;75609.53;;;-142.53;100.00
4133;BME280;2080;51.038;7.008;2023-03-14T13:51:52;75613.41;;;-142.53;100.00
4133;BME280;2080;51.038;7.008;2023-03-14T13:54:21;75594.00;;;-142.53;100.00
4133;BME280;2080;51.038;7.008;2023-03-14T13:56:47;75582.34;;;-142.53;100.00
4133;BME280;2080;51.038;7.008;2023-03-14T13:59:28;75597.88;;;-142.53;100.00